sensor_id;sensor_type;location;lat;lon;timestamp;P1;durP1;ratioP1;P2;durP2;ratioP2
72895;SDS011;61036;53.224;6.554;2022-08-19T00:01:43;10.47;;;7.80;;
72895;SDS011;61036;53.224;6.554;2022-08-19T00:04:11;9.53;;;7.73;;
72895;SDS011;61036;53.224;6.554;2022-08-19T00:06:38;10.00;;;6.70;;
72895;SDS011;61036;53.224;6.554;2022-08-19T00:09:06;11.37;;;7.60;;
72895;SDS011;61036;53.224;6.554;2022-08-19T00:11:33;10.93;;;7.70;;
72895;SDS011;61036;53.224;6.554;2022-08-19T00:14:01;10.70;;;7.50;;
72895;SDS011;61036;53.224;6.554;2022-08-19T00:16:27;8.87;;;7.07;;
72895;SDS011;61036;53.224;6.554;2022-08-19T00:18:53;11.13;;;7.53;;
72895;SDS011;61036;53.224;6.554;2022-08-19T00:21:20;12.53;;;7.70;;
72895;SDS011;61036;53.224;6.554;2022-08-19T00:23:46;9.13;;;6.97;;
72895;SDS011;61036;53.224;6.554;2022-08-19T00:26:12;12.43;;;8.70;;
72895;SDS011;61036;53.224;6.554;2022-08-19T00:28:40;9.97;;;7.23;;
72895;SDS011;61036;53.224;6.554;2022-08-19T00:31:07;9.50;;;7.93;;
72895;SDS011;61036;53.224;6.554;2022-08-19T00:33:36;12.10;;;8.00;;
72895;SDS011;61036;53.224;6.554;2022-08-19T00:36:03;9.77;;;8.00;;
72895;SDS011;61036;53.224;6.554;2022-08-19T00:38:31;12.93;;;8.33;;
72895;SDS011;61036;53.224;6.554;2022-08-19T00:40:58;11.00;;;7.20;;
72895;SDS011;61036;53.224;6.554;2022-08-19T00:43:26;12.73;;;8.00;;
72895;SDS011;61036;53.224;6.554;2022-08-19T00:45:54;10.10;;;7.23;;
72895;SDS011;61036;53.224;6.554;2022-08-19T00:48:22;10.90;;;7.70;;
72895;SDS011;61036;53.224;6.554;2022-08-19T00:50:49;9.87;;;7.77;;
72895;SDS011;61036;53.224;6.554;2022-08-19T00:53:20;10.87;;;7.93;;
72895;SDS011;61036;53.224;6.554;2022-08-19T00:55:50;9.83;;;7.17;;
72895;SDS011;61036;53.224;6.554;2022-08-19T00:58:17;9.87;;;7.40;;
72895;SDS011;61036;53.224;6.554;2022-08-19T01:00:45;9.80;;;7.00;;
72895;SDS011;61036;53.224;6.554;2022-08-19T01:03:13;10.03;;;7.27;;
72895;SDS011;61036;53.224;6.554;2022-08-19T01:05:42;9.63;;;6.93;;
72895;SDS011;61036;53.224;6.554;2022-08-19T01:08:09;9.73;;;7.00;;
72895;SDS011;61036;53.224;6.554;2022-08-19T01:10:54;9.27;;;7.37;;
72895;SDS011;61036;53.224;6.554;2022-08-19T01:13:23;10.00;;;7.50;;
72895;SDS011;61036;53.224;6.554;2022-08-19T01:15:53;10.93;;;7.23;;
72895;SDS011;61036;53.224;6.554;2022-08-19T01:18:21;9.30;;;6.90;;
72895;SDS011;61036;53.224;6.554;2022-08-19T01:20:51;9.67;;;6.33;;
72895;SDS011;61036;53.224;6.554;2022-08-19T01:23:21;9.07;;;6.20;;
72895;SDS011;61036;53.224;6.554;2022-08-19T01:26:12;9.87;;;6.70;;
72895;SDS011;61036;53.224;6.554;2022-08-19T01:28:40;8.87;;;7.40;;
72895;SDS011;61036;53.224;6.554;2022-08-19T01:31:08;10.83;;;7.47;;
72895;SDS011;61036;53.224;6.554;2022-08-19T01:33:36;10.60;;;8.00;;
72895;SDS011;61036;53.224;6.554;2022-08-19T01:36:07;10.83;;;7.77;;
72895;SDS011;61036;53.224;6.554;2022-08-19T01:38:36;11.93;;;8.73;;
72895;SDS011;61036;53.224;6.554;2022-08-19T01:41:03;10.30;;;8.20;;
72895;SDS011;61036;53.224;6.554;2022-08-19T01:43:33;11.83;;;8.60;;
72895;SDS011;61036;53.224;6.554;2022-08-19T01:45:59;12.30;;;9.87;;
72895;SDS011;61036;53.224;6.554;2022-08-19T01:48:25;10.87;;;8.73;;
72895;SDS011;61036;53.224;6.554;2022-08-19T01:50:54;11.80;;;9.43;;
72895;SDS011;61036;53.224;6.554;2022-08-19T01:53:23;12.13;;;9.03;;
72895;SDS011;61036;53.224;6.554;2022-08-19T01:55:49;15.20;;;10.53;;
72895;SDS011;61036;53.224;6.554;2022-08-19T01:58:16;12.20;;;9.50;;
72895;SDS011;61036;53.224;6.554;2022-08-19T02:00:46;13.93;;;10.67;;
72895;SDS011;61036;53.224;6.554;2022-08-19T02:03:12;15.13;;;10.63;;
72895;SDS011;61036;53.224;6.554;2022-08-19T02:05:39;14.77;;;10.97;;
72895;SDS011;61036;53.224;6.554;2022-08-19T02:08:07;11.83;;;9.27;;
72895;SDS011;61036;53.224;6.554;2022-08-19T02:10:32;12.60;;;9.37;;
72895;SDS011;61036;53.224;6.554;2022-08-19T02:13:01;13.80;;;9.73;;
72895;SDS011;61036;53.224;6.554;2022-08-19T02:15:28;11.43;;;8.90;;
72895;SDS011;61036;53.224;6.554;2022-08-19T02:17:54;12.27;;;8.77;;
72895;SDS011;61036;53.224;6.554;2022-08-19T02:20:22;11.37;;;9.30;;
72895;SDS011;61036;53.224;6.554;2022-08-19T02:22:47;11.93;;;8.40;;
72895;SDS011;61036;53.224;6.554;2022-08-19T02:25:13;11.23;;;8.33;;
72895;SDS011;61036;53.224;6.554;2022-08-19T02:27:40;13.00;;;8.97;;
72895;SDS011;61036;53.224;6.554;2022-08-19T02:30:07;12.73;;;9.30;;
72895;SDS011;61036;53.224;6.554;2022-08-19T02:32:37;13.70;;;9.53;;
72895;SDS011;61036;53.224;6.554;2022-08-19T02:35:02;12.17;;;8.90;;
72895;SDS011;61036;53.224;6.554;2022-08-19T02:37:29;11.27;;;8.97;;
72895;SDS011;61036;53.224;6.554;2022-08-19T02:40:13;12.77;;;8.77;;
72895;SDS011;61036;53.224;6.554;2022-08-19T02:42:41;11.67;;;8.80;;
72895;SDS011;61036;53.224;6.554;2022-08-19T02:45:08;10.23;;;8.73;;
72895;SDS011;61036;53.224;6.554;2022-08-19T02:47:38;11.97;;;8.77;;
72895;SDS011;61036;53.224;6.554;2022-08-19T02:50:09;10.43;;;8.23;;
72895;SDS011;61036;53.224;6.554;2022-08-19T02:52:35;9.17;;;7.77;;
72895;SDS011;61036;53.224;6.554;2022-08-19T02:55:02;12.20;;;8.43;;
72895;SDS011;61036;53.224;6.554;2022-08-19T02:57:29;11.63;;;8.50;;
72895;SDS011;61036;53.224;6.554;2022-08-19T02:59:59;9.60;;;7.77;;
72895;SDS011;61036;53.224;6.554;2022-08-19T03:02:28;12.80;;;7.80;;
72895;SDS011;61036;53.224;6.554;2022-08-19T03:04:56;10.93;;;7.87;;
72895;SDS011;61036;53.224;6.554;2022-08-19T03:07:21;10.17;;;7.90;;
72895;SDS011;61036;53.224;6.554;2022-08-19T03:09:48;10.63;;;7.70;;
72895;SDS011;61036;53.224;6.554;2022-08-19T03:12:14;10.77;;;7.43;;
72895;SDS011;61036;53.224;6.554;2022-08-19T03:14:41;11.93;;;8.60;;
72895;SDS011;61036;53.224;6.554;2022-08-19T03:17:07;10.87;;;8.03;;
72895;SDS011;61036;53.224;6.554;2022-08-19T03:19:35;9.70;;;7.50;;
72895;SDS011;61036;53.224;6.554;2022-08-19T03:22:01;11.90;;;8.43;;
72895;SDS011;61036;53.224;6.554;2022-08-19T03:24:29;10.50;;;7.73;;
72895;SDS011;61036;53.224;6.554;2022-08-19T03:26:55;9.03;;;7.33;;
72895;SDS011;61036;53.224;6.554;2022-08-19T03:29:22;9.43;;;7.60;;
72895;SDS011;61036;53.224;6.554;2022-08-19T03:31:56;10.73;;;7.80;;
72895;SDS011;61036;53.224;6.554;2022-08-19T03:34:24;11.43;;;8.00;;
72895;SDS011;61036;53.224;6.554;2022-08-19T03:36:55;9.83;;;7.63;;
72895;SDS011;61036;53.224;6.554;2022-08-19T03:39:22;11.83;;;8.67;;
72895;SDS011;61036;53.224;6.554;2022-08-19T03:41:49;11.33;;;8.53;;
72895;SDS011;61036;53.224;6.554;2022-08-19T03:44:20;10.87;;;7.90;;
72895;SDS011;61036;53.224;6.554;2022-08-19T03:46:52;10.20;;;7.60;;
72895;SDS011;61036;53.224;6.554;2022-08-19T03:49:21;10.63;;;8.13;;
72895;SDS011;61036;53.224;6.554;2022-08-19T03:51:49;8.87;;;7.10;;
72895;SDS011;61036;53.224;6.554;2022-08-19T03:54:16;9.27;;;7.40;;
72895;SDS011;61036;53.224;6.554;2022-08-19T03:56:45;9.20;;;7.33;;
72895;SDS011;61036;53.224;6.554;2022-08-19T03:59:15;9.60;;;7.80;;
72895;SDS011;61036;53.224;6.554;2022-08-19T04:01:45;10.57;;;7.87;;
72895;SDS011;61036;53.224;6.554;2022-08-19T04:04:11;9.73;;;7.73;;
72895;SDS011;61036;53.224;6.554;2022-08-19T04:06:39;10.57;;;7.63;;
72895;SDS011;61036;53.224;6.554;2022-08-19T04:09:06;11.03;;;8.17;;
72895;SDS011;61036;53.224;6.554;2022-08-19T04:11:36;9.93;;;7.93;;
72895;SDS011;61036;53.224;6.554;2022-08-19T04:14:09;10.10;;;7.43;;
72895;SDS011;61036;53.224;6.554;2022-08-19T04:16:36;9.37;;;7.10;;
72895;SDS011;61036;53.224;6.554;2022-08-19T04:19:04;10.03;;;7.33;;
72895;SDS011;61036;53.224;6.554;2022-08-19T04:21:31;8.70;;;7.47;;
72895;SDS011;61036;53.224;6.554;2022-08-19T04:23:58;10.07;;;7.40;;
72895;SDS011;61036;53.224;6.554;2022-08-19T04:26:26;10.73;;;8.10;;
72895;SDS011;61036;53.224;6.554;2022-08-19T04:28:54;9.43;;;7.53;;
72895;SDS011;61036;53.224;6.554;2022-08-19T04:31:24;12.20;;;8.30;;
72895;SDS011;61036;53.224;6.554;2022-08-19T04:33:59;11.33;;;8.13;;
72895;SDS011;61036;53.224;6.554;2022-08-19T04:36:28;9.57;;;7.70;;
72895;SDS011;61036;53.224;6.554;2022-08-19T04:38:59;10.67;;;7.80;;
72895;SDS011;61036;53.224;6.554;2022-08-19T04:41:28;9.80;;;7.40;;
72895;SDS011;61036;53.224;6.554;2022-08-19T04:44:12;11.33;;;8.87;;
72895;SDS011;61036;53.224;6.554;2022-08-19T04:46:39;10.63;;;8.43;;
72895;SDS011;61036;53.224;6.554;2022-08-19T04:49:05;10.60;;;8.20;;
72895;SDS011;61036;53.224;6.554;2022-08-19T04:51:33;11.03;;;8.43;;
72895;SDS011;61036;53.224;6.554;2022-08-19T04:54:01;13.27;;;8.97;;
72895;SDS011;61036;53.224;6.554;2022-08-19T04:56:28;11.10;;;8.73;;
72895;SDS011;61036;53.224;6.554;2022-08-19T04:58:54;12.23;;;8.63;;
72895;SDS011;61036;53.224;6.554;2022-08-19T05:01:22;11.30;;;8.23;;
72895;SDS011;61036;53.224;6.554;2022-08-19T05:03:50;10.77;;;8.40;;
72895;SDS011;61036;53.224;6.554;2022-08-19T05:06:21;13.63;;;9.53;;
72895;SDS011;61036;53.224;6.554;2022-08-19T05:08:47;12.93;;;9.37;;
72895;SDS011;61036;53.224;6.554;2022-08-19T05:11:16;13.33;;;9.20;;
72895;SDS011;61036;53.224;6.554;2022-08-19T05:13:45;12.30;;;9.80;;
72895;SDS011;61036;53.224;6.554;2022-08-19T05:16:14;13.00;;;9.30;;
72895;SDS011;61036;53.224;6.554;2022-08-19T05:18:42;15.27;;;10.73;;
72895;SDS011;61036;53.224;6.554;2022-08-19T05:21:27;13.33;;;10.10;;
72895;SDS011;61036;53.224;6.554;2022-08-19T05:24:12;14.40;;;11.73;;
72895;SDS011;61036;53.224;6.554;2022-08-19T05:26:39;15.73;;;11.97;;
72895;SDS011;61036;53.224;6.554;2022-08-19T05:29:07;15.70;;;11.60;;
72895;SDS011;61036;53.224;6.554;2022-08-19T05:31:34;16.77;;;12.43;;
72895;SDS011;61036;53.224;6.554;2022-08-19T05:34:01;14.97;;;12.40;;
72895;SDS011;61036;53.224;6.554;2022-08-19T05:36:29;16.07;;;12.67;;
72895;SDS011;61036;53.224;6.554;2022-08-19T05:38:59;15.33;;;11.67;;
72895;SDS011;61036;53.224;6.554;2022-08-19T05:41:25;16.80;;;13.00;;
72895;SDS011;61036;53.224;6.554;2022-08-19T05:44:00;18.83;;;13.77;;
72895;SDS011;61036;53.224;6.554;2022-08-19T05:46:28;16.03;;;11.73;;
72895;SDS011;61036;53.224;6.554;2022-08-19T05:48:54;17.60;;;12.40;;
72895;SDS011;61036;53.224;6.554;2022-08-19T05:51:22;16.03;;;11.60;;
72895;SDS011;61036;53.224;6.554;2022-08-19T05:53:50;15.30;;;11.37;;
72895;SDS011;61036;53.224;6.554;2022-08-19T05:56:16;13.63;;;11.00;;
72895;SDS011;61036;53.224;6.554;2022-08-19T05:58:43;16.80;;;11.83;;
72895;SDS011;61036;53.224;6.554;2022-08-19T06:01:12;18.83;;;12.97;;
72895;SDS011;61036;53.224;6.554;2022-08-19T06:03:45;14.77;;;11.83;;
72895;SDS011;61036;53.224;6.554;2022-08-19T06:06:12;17.37;;;12.33;;
72895;SDS011;61036;53.224;6.554;2022-08-19T06:08:39;17.60;;;12.27;;
72895;SDS011;61036;53.224;6.554;2022-08-19T06:14:00;15.00;;;11.77;;
72895;SDS011;61036;53.224;6.554;2022-08-19T06:16:34;17.57;;;11.70;;
72895;SDS011;61036;53.224;6.554;2022-08-19T06:19:02;13.97;;;11.37;;
72895;SDS011;61036;53.224;6.554;2022-08-19T06:21:32;15.00;;;11.07;;
72895;SDS011;61036;53.224;6.554;2022-08-19T06:23:58;14.43;;;10.57;;
72895;SDS011;61036;53.224;6.554;2022-08-19T06:26:24;14.43;;;11.33;;
72895;SDS011;61036;53.224;6.554;2022-08-19T06:28:52;15.50;;;10.63;;
72895;SDS011;61036;53.224;6.554;2022-08-19T06:31:21;12.57;;;10.27;;
72895;SDS011;61036;53.224;6.554;2022-08-19T06:33:49;13.47;;;10.70;;
72895;SDS011;61036;53.224;6.554;2022-08-19T06:38:52;14.13;;;11.20;;
72895;SDS011;61036;53.224;6.554;2022-08-19T06:41:18;12.87;;;10.27;;
72895;SDS011;61036;53.224;6.554;2022-08-19T06:43:45;13.77;;;10.97;;
72895;SDS011;61036;53.224;6.554;2022-08-19T06:46:12;12.80;;;10.53;;
72895;SDS011;61036;53.224;6.554;2022-08-19T06:48:40;13.03;;;9.80;;
72895;SDS011;61036;53.224;6.554;2022-08-19T06:51:09;13.87;;;9.87;;
72895;SDS011;61036;53.224;6.554;2022-08-19T06:53:35;13.57;;;9.77;;
72895;SDS011;61036;53.224;6.554;2022-08-19T06:56:02;12.03;;;9.70;;
72895;SDS011;61036;53.224;6.554;2022-08-19T06:58:31;13.47;;;10.13;;
72895;SDS011;61036;53.224;6.554;2022-08-19T07:01:01;13.47;;;9.63;;
72895;SDS011;61036;53.224;6.554;2022-08-19T07:03:29;15.03;;;10.30;;
72895;SDS011;61036;53.224;6.554;2022-08-19T07:05:57;11.93;;;9.70;;
72895;SDS011;61036;53.224;6.554;2022-08-19T07:08:28;12.60;;;9.47;;
72895;SDS011;61036;53.224;6.554;2022-08-19T07:10:54;13.47;;;9.70;;
72895;SDS011;61036;53.224;6.554;2022-08-19T07:13:21;14.70;;;10.47;;
72895;SDS011;61036;53.224;6.554;2022-08-19T07:15:49;12.63;;;9.77;;
72895;SDS011;61036;53.224;6.554;2022-08-19T07:18:17;13.23;;;9.80;;
72895;SDS011;61036;53.224;6.554;2022-08-19T07:20:44;13.13;;;9.63;;
72895;SDS011;61036;53.224;6.554;2022-08-19T07:23:10;12.20;;;9.47;;
72895;SDS011;61036;53.224;6.554;2022-08-19T07:25:36;13.43;;;9.60;;
72895;SDS011;61036;53.224;6.554;2022-08-19T07:28:03;14.20;;;9.37;;
72895;SDS011;61036;53.224;6.554;2022-08-19T07:30:30;14.40;;;10.23;;
72895;SDS011;61036;53.224;6.554;2022-08-19T07:32:56;11.03;;;9.30;;
72895;SDS011;61036;53.224;6.554;2022-08-19T07:35:22;10.80;;;8.70;;
72895;SDS011;61036;53.224;6.554;2022-08-19T07:37:48;15.83;;;10.63;;
72895;SDS011;61036;53.224;6.554;2022-08-19T07:40:14;11.90;;;10.40;;
72895;SDS011;61036;53.224;6.554;2022-08-19T07:42:42;11.80;;;9.50;;
72895;SDS011;61036;53.224;6.554;2022-08-19T07:45:08;11.83;;;9.67;;
72895;SDS011;61036;53.224;6.554;2022-08-19T07:47:35;11.83;;;8.90;;
72895;SDS011;61036;53.224;6.554;2022-08-19T07:50:06;10.87;;;9.07;;
72895;SDS011;61036;53.224;6.554;2022-08-19T07:52:35;12.03;;;9.03;;
72895;SDS011;61036;53.224;6.554;2022-08-19T07:55:04;13.27;;;9.07;;
72895;SDS011;61036;53.224;6.554;2022-08-19T07:57:31;11.70;;;9.57;;
72895;SDS011;61036;53.224;6.554;2022-08-19T07:59:56;10.53;;;8.47;;
72895;SDS011;61036;53.224;6.554;2022-08-19T08:02:22;10.20;;;8.27;;
72895;SDS011;61036;53.224;6.554;2022-08-19T08:04:50;10.50;;;8.27;;
72895;SDS011;61036;53.224;6.554;2022-08-19T08:07:37;10.90;;;8.77;;
72895;SDS011;61036;53.224;6.554;2022-08-19T08:10:22;11.00;;;9.70;;
72895;SDS011;61036;53.224;6.554;2022-08-19T08:12:49;12.27;;;10.50;;
72895;SDS011;61036;53.224;6.554;2022-08-19T08:15:15;12.17;;;10.13;;
72895;SDS011;61036;53.224;6.554;2022-08-19T08:17:44;12.10;;;9.53;;
72895;SDS011;61036;53.224;6.554;2022-08-19T08:20:10;13.03;;;10.83;;
72895;SDS011;61036;53.224;6.554;2022-08-19T08:22:36;11.30;;;9.70;;
72895;SDS011;61036;53.224;6.554;2022-08-19T08:25:26;11.10;;;8.90;;
72895;SDS011;61036;53.224;6.554;2022-08-19T08:27:52;10.47;;;8.60;;
72895;SDS011;61036;53.224;6.554;2022-08-19T08:30:19;10.50;;;8.50;;
72895;SDS011;61036;53.224;6.554;2022-08-19T08:32:49;11.63;;;8.90;;
72895;SDS011;61036;53.224;6.554;2022-08-19T08:35:17;10.07;;;8.40;;
72895;SDS011;61036;53.224;6.554;2022-08-19T08:37:44;11.33;;;7.90;;
72895;SDS011;61036;53.224;6.554;2022-08-19T08:40:23;12.10;;;10.30;;
72895;SDS011;61036;53.224;6.554;2022-08-19T08:42:54;11.03;;;9.70;;
72895;SDS011;61036;53.224;6.554;2022-08-19T08:45:37;11.03;;;9.90;;
72895;SDS011;61036;53.224;6.554;2022-08-19T08:48:17;11.70;;;10.50;;
72895;SDS011;61036;53.224;6.554;2022-08-19T08:50:47;13.57;;;12.17;;
72895;SDS011;61036;53.224;6.554;2022-08-19T08:53:17;12.50;;;11.20;;
72895;SDS011;61036;53.224;6.554;2022-08-19T08:55:44;13.57;;;12.03;;
72895;SDS011;61036;53.224;6.554;2022-08-19T08:58:13;15.30;;;13.23;;
72895;SDS011;61036;53.224;6.554;2022-08-19T09:00:46;13.00;;;11.53;;
72895;SDS011;61036;53.224;6.554;2022-08-19T09:06:02;12.23;;;10.93;;
72895;SDS011;61036;53.224;6.554;2022-08-19T09:11:56;13.93;;;12.53;;
72895;SDS011;61036;53.224;6.554;2022-08-19T09:14:55;13.10;;;11.70;;
72895;SDS011;61036;53.224;6.554;2022-08-19T09:17:26;12.20;;;11.00;;
72895;SDS011;61036;53.224;6.554;2022-08-19T09:20:15;12.23;;;10.83;;
72895;SDS011;61036;53.224;6.554;2022-08-19T09:22:44;13.43;;;11.13;;
72895;SDS011;61036;53.224;6.554;2022-08-19T09:25:15;12.37;;;11.20;;
72895;SDS011;61036;53.224;6.554;2022-08-19T09:27:42;11.30;;;10.10;;
72895;SDS011;61036;53.224;6.554;2022-08-19T09:30:19;11.93;;;10.73;;
72895;SDS011;61036;53.224;6.554;2022-08-19T09:32:47;11.40;;;9.80;;
72895;SDS011;61036;53.224;6.554;2022-08-19T09:35:13;11.13;;;9.93;;
72895;SDS011;61036;53.224;6.554;2022-08-19T09:37:42;10.93;;;9.83;;
72895;SDS011;61036;53.224;6.554;2022-08-19T09:40:08;11.10;;;9.90;;
72895;SDS011;61036;53.224;6.554;2022-08-19T09:42:35;10.87;;;9.77;;
72895;SDS011;61036;53.224;6.554;2022-08-19T09:45:01;9.83;;;8.70;;
72895;SDS011;61036;53.224;6.554;2022-08-19T09:47:29;10.83;;;9.83;;
72895;SDS011;61036;53.224;6.554;2022-08-19T09:49:54;9.83;;;8.83;;
72895;SDS011;61036;53.224;6.554;2022-08-19T09:52:20;11.73;;;10.27;;
72895;SDS011;61036;53.224;6.554;2022-08-19T09:54:46;12.03;;;10.83;;
72895;SDS011;61036;53.224;6.554;2022-08-19T09:57:12;11.97;;;10.77;;
72895;SDS011;61036;53.224;6.554;2022-08-19T09:59:38;13.17;;;11.77;;
72895;SDS011;61036;53.224;6.554;2022-08-19T10:02:05;11.60;;;10.40;;
72895;SDS011;61036;53.224;6.554;2022-08-19T10:04:31;13.67;;;12.30;;
72895;SDS011;61036;53.224;6.554;2022-08-19T10:07:15;11.50;;;10.33;;
72895;SDS011;61036;53.224;6.554;2022-08-19T10:09:42;10.90;;;9.80;;
72895;SDS011;61036;53.224;6.554;2022-08-19T10:12:07;12.13;;;10.93;;
72895;SDS011;61036;53.224;6.554;2022-08-19T10:14:37;11.70;;;10.60;;
72895;SDS011;61036;53.224;6.554;2022-08-19T10:17:04;13.23;;;12.03;;
72895;SDS011;61036;53.224;6.554;2022-08-19T10:19:29;13.00;;;11.73;;
72895;SDS011;61036;53.224;6.554;2022-08-19T10:22:04;12.67;;;11.40;;
72895;SDS011;61036;53.224;6.554;2022-08-19T10:24:32;13.87;;;12.57;;
72895;SDS011;61036;53.224;6.554;2022-08-19T10:26:59;14.80;;;13.30;;
72895;SDS011;61036;53.224;6.554;2022-08-19T10:29:29;14.33;;;12.83;;
72895;SDS011;61036;53.224;6.554;2022-08-19T10:31:57;13.97;;;12.57;;
72895;SDS011;61036;53.224;6.554;2022-08-19T10:34:25;16.37;;;14.07;;
72895;SDS011;61036;53.224;6.554;2022-08-19T10:36:51;14.03;;;12.67;;
72895;SDS011;61036;53.224;6.554;2022-08-19T10:39:23;13.67;;;12.23;;
72895;SDS011;61036;53.224;6.554;2022-08-19T10:41:51;14.13;;;12.77;;
72895;SDS011;61036;53.224;6.554;2022-08-19T10:44:20;15.33;;;13.83;;
72895;SDS011;61036;53.224;6.554;2022-08-19T10:46:46;14.83;;;13.40;;
72895;SDS011;61036;53.224;6.554;2022-08-19T10:49:13;14.77;;;13.27;;
72895;SDS011;61036;53.224;6.554;2022-08-19T10:51:42;15.00;;;13.40;;
72895;SDS011;61036;53.224;6.554;2022-08-19T10:54:26;14.20;;;12.70;;
72895;SDS011;61036;53.224;6.554;2022-08-19T10:57:13;13.60;;;12.20;;
72895;SDS011;61036;53.224;6.554;2022-08-19T10:59:39;14.80;;;13.30;;
72895;SDS011;61036;53.224;6.554;2022-08-19T11:02:06;14.60;;;13.10;;
72895;SDS011;61036;53.224;6.554;2022-08-19T11:04:35;13.60;;;12.17;;
72895;SDS011;61036;53.224;6.554;2022-08-19T11:07:02;15.03;;;13.53;;
72895;SDS011;61036;53.224;6.554;2022-08-19T11:09:29;14.27;;;12.77;;
72895;SDS011;61036;53.224;6.554;2022-08-19T11:11:55;14.10;;;12.60;;
72895;SDS011;61036;53.224;6.554;2022-08-19T11:14:22;14.07;;;12.67;;
72895;SDS011;61036;53.224;6.554;2022-08-19T11:16:49;14.57;;;13.07;;
72895;SDS011;61036;53.224;6.554;2022-08-19T11:19:17;15.40;;;13.87;;
72895;SDS011;61036;53.224;6.554;2022-08-19T11:21:45;14.43;;;13.03;;
72895;SDS011;61036;53.224;6.554;2022-08-19T11:24:23;14.80;;;13.30;;
72895;SDS011;61036;53.224;6.554;2022-08-19T11:26:52;15.73;;;14.23;;
72895;SDS011;61036;53.224;6.554;2022-08-19T11:29:24;18.23;;;16.47;;
72895;SDS011;61036;53.224;6.554;2022-08-19T11:31:50;17.50;;;15.80;;
72895;SDS011;61036;53.224;6.554;2022-08-19T11:34:19;14.67;;;13.17;;
72895;SDS011;61036;53.224;6.554;2022-08-19T11:36:47;15.80;;;14.30;;
72895;SDS011;61036;53.224;6.554;2022-08-19T11:39:16;18.20;;;16.30;;
72895;SDS011;61036;53.224;6.554;2022-08-19T11:41:45;18.03;;;16.17;;
72895;SDS011;61036;53.224;6.554;2022-08-19T11:44:11;16.17;;;14.57;;
72895;SDS011;61036;53.224;6.554;2022-08-19T11:46:39;14.33;;;13.00;;
72895;SDS011;61036;53.224;6.554;2022-08-19T11:49:06;13.93;;;12.63;;
72895;SDS011;61036;53.224;6.554;2022-08-19T11:51:35;16.10;;;14.50;;
72895;SDS011;61036;53.224;6.554;2022-08-19T11:54:01;14.57;;;13.17;;
72895;SDS011;61036;53.224;6.554;2022-08-19T11:56:30;15.20;;;13.60;;
72895;SDS011;61036;53.224;6.554;2022-08-19T11:58:56;15.57;;;14.07;;
72895;SDS011;61036;53.224;6.554;2022-08-19T12:01:23;19.37;;;17.47;;
72895;SDS011;61036;53.224;6.554;2022-08-19T12:03:51;17.27;;;15.37;;
72895;SDS011;61036;53.224;6.554;2022-08-19T12:06:20;16.43;;;14.90;;
72895;SDS011;61036;53.224;6.554;2022-08-19T12:08:54;16.47;;;14.97;;
72895;SDS011;61036;53.224;6.554;2022-08-19T12:11:21;15.33;;;13.77;;
72895;SDS011;61036;53.224;6.554;2022-08-19T12:13:47;13.23;;;11.93;;
72895;SDS011;61036;53.224;6.554;2022-08-19T12:16:16;13.00;;;11.70;;
72895;SDS011;61036;53.224;6.554;2022-08-19T12:18:49;14.80;;;13.23;;
72895;SDS011;61036;53.224;6.554;2022-08-19T12:21:17;15.80;;;14.23;;
72895;SDS011;61036;53.224;6.554;2022-08-19T12:23:48;12.97;;;11.67;;
72895;SDS011;61036;53.224;6.554;2022-08-19T12:26:15;14.23;;;12.73;;
72895;SDS011;61036;53.224;6.554;2022-08-19T12:28:41;14.37;;;12.87;;
72895;SDS011;61036;53.224;6.554;2022-08-19T12:31:08;14.60;;;13.20;;
72895;SDS011;61036;53.224;6.554;2022-08-19T12:33:37;14.13;;;12.73;;
72895;SDS011;61036;53.224;6.554;2022-08-19T12:36:07;13.17;;;11.87;;
72895;SDS011;61036;53.224;6.554;2022-08-19T12:38:37;12.40;;;11.20;;
72895;SDS011;61036;53.224;6.554;2022-08-19T12:41:05;14.27;;;12.83;;
72895;SDS011;61036;53.224;6.554;2022-08-19T12:43:35;14.43;;;13.03;;
72895;SDS011;61036;53.224;6.554;2022-08-19T12:46:05;14.40;;;12.77;;
72895;SDS011;61036;53.224;6.554;2022-08-19T12:48:32;13.20;;;11.83;;
72895;SDS011;61036;53.224;6.554;2022-08-19T12:50:58;13.20;;;11.90;;
72895;SDS011;61036;53.224;6.554;2022-08-19T12:53:24;11.70;;;10.43;;
72895;SDS011;61036;53.224;6.554;2022-08-19T12:56:00;13.37;;;11.47;;
72895;SDS011;61036;53.224;6.554;2022-08-19T12:58:26;12.87;;;11.20;;
72895;SDS011;61036;53.224;6.554;2022-08-19T13:00:52;13.17;;;11.63;;
72895;SDS011;61036;53.224;6.554;2022-08-19T13:03:19;14.60;;;13.07;;
72895;SDS011;61036;53.224;6.554;2022-08-19T13:05:45;12.37;;;11.13;;
72895;SDS011;61036;53.224;6.554;2022-08-19T13:08:11;13.73;;;12.40;;
72895;SDS011;61036;53.224;6.554;2022-08-19T13:10:39;14.53;;;13.03;;
72895;SDS011;61036;53.224;6.554;2022-08-19T13:13:07;13.97;;;12.67;;
72895;SDS011;61036;53.224;6.554;2022-08-19T13:15:35;15.90;;;14.30;;
72895;SDS011;61036;53.224;6.554;2022-08-19T13:18:04;16.33;;;14.60;;
72895;SDS011;61036;53.224;6.554;2022-08-19T13:20:31;19.20;;;16.57;;
72895;SDS011;61036;53.224;6.554;2022-08-19T13:22:57;17.03;;;15.17;;
72895;SDS011;61036;53.224;6.554;2022-08-19T13:25:23;18.70;;;16.33;;
72895;SDS011;61036;53.224;6.554;2022-08-19T13:27:52;17.07;;;15.27;;
72895;SDS011;61036;53.224;6.554;2022-08-19T13:30:19;18.37;;;15.30;;
72895;SDS011;61036;53.224;6.554;2022-08-19T13:33:04;15.57;;;13.97;;
72895;SDS011;61036;53.224;6.554;2022-08-19T13:35:40;16.63;;;13.07;;
72895;SDS011;61036;53.224;6.554;2022-08-19T13:38:08;15.83;;;13.03;;
72895;SDS011;61036;53.224;6.554;2022-08-19T13:40:35;15.40;;;12.53;;
72895;SDS011;61036;53.224;6.554;2022-08-19T13:43:02;12.83;;;10.37;;
72895;SDS011;61036;53.224;6.554;2022-08-19T13:45:29;13.77;;;10.83;;
72895;SDS011;61036;53.224;6.554;2022-08-19T13:48:01;13.03;;;11.37;;
72895;SDS011;61036;53.224;6.554;2022-08-19T13:50:35;14.13;;;11.83;;
72895;SDS011;61036;53.224;6.554;2022-08-19T13:53:10;11.90;;;10.37;;
72895;SDS011;61036;53.224;6.554;2022-08-19T13:55:37;15.70;;;11.63;;
72895;SDS011;61036;53.224;6.554;2022-08-19T13:58:04;13.30;;;10.87;;
72895;SDS011;61036;53.224;6.554;2022-08-19T14:00:32;12.97;;;11.60;;
72895;SDS011;61036;53.224;6.554;2022-08-19T14:03:01;12.57;;;10.93;;
72895;SDS011;61036;53.224;6.554;2022-08-19T14:05:28;11.57;;;9.60;;
72895;SDS011;61036;53.224;6.554;2022-08-19T14:07:57;10.50;;;9.10;;
72895;SDS011;61036;53.224;6.554;2022-08-19T14:10:24;10.23;;;8.23;;
72895;SDS011;61036;53.224;6.554;2022-08-19T14:12:54;8.40;;;7.50;;
72895;SDS011;61036;53.224;6.554;2022-08-19T14:15:21;9.63;;;8.00;;
72895;SDS011;61036;53.224;6.554;2022-08-19T14:17:48;14.77;;;11.20;;
72895;SDS011;61036;53.224;6.554;2022-08-19T14:20:16;11.93;;;8.83;;
72895;SDS011;61036;53.224;6.554;2022-08-19T14:22:42;16.97;;;12.17;;
72895;SDS011;61036;53.224;6.554;2022-08-19T14:25:10;12.80;;;11.33;;
72895;SDS011;61036;53.224;6.554;2022-08-19T14:27:41;13.80;;;11.47;;
72895;SDS011;61036;53.224;6.554;2022-08-19T14:30:09;14.27;;;10.47;;
72895;SDS011;61036;53.224;6.554;2022-08-19T14:32:39;15.90;;;12.60;;
72895;SDS011;61036;53.224;6.554;2022-08-19T14:35:11;16.43;;;13.63;;
72895;SDS011;61036;53.224;6.554;2022-08-19T14:37:39;15.63;;;12.77;;
72895;SDS011;61036;53.224;6.554;2022-08-19T14:40:06;17.97;;;14.27;;
72895;SDS011;61036;53.224;6.554;2022-08-19T14:42:33;15.70;;;13.87;;
72895;SDS011;61036;53.224;6.554;2022-08-19T14:44:59;16.77;;;13.97;;
72895;SDS011;61036;53.224;6.554;2022-08-19T14:47:26;16.53;;;13.33;;
72895;SDS011;61036;53.224;6.554;2022-08-19T14:49:53;16.20;;;13.67;;